Time;durP1;ratioP1;P1;durP2;ratioP2;P2;SDS_P1;SDS_P2;PMS_P1;PMS_P2;Temp;Humidity;BMP_temperature;BMP_pressure;BME280_temperature;BME280_humidity;BME280_pressure;Samples;Min_cycle;Max_cycle;Signal;HPM_P1;HPM_P2
2021/10/23 00:02:05;;;;;;;5.30;2.03;;;10.50;91.20;;;;;;5092293;28;20075;-60
2021/10/23 00:04:32;;;;;;;5.53;2.00;;;10.50;91.20;;;;;;5088019;28;20087;-62
2021/10/23 00:06:59;;;;;;;6.78;2.20;;;10.50;91.20;;;;;;5084808;28;20044;-62
2021/10/23 00:09:25;;;;;;;5.80;2.22;;;10.50;91.10;;;;;;5085600;28;20834;-65
2021/10/23 00:11:52;;;;;;;6.82;2.20;;;10.50;91.10;;;;;;5078611;28;20507;-60
2021/10/23 00:14:19;;;;;;;2.50;1.35;;;10.50;91.20;;;;;;5083780;28;20067;-61
2021/10/23 00:16:46;;;;;;;6.88;2.17;;;10.50;91.20;;;;;;5084534;28;20097;-61
2021/10/23 00:19:13;;;;;;;4.30;1.85;;;10.50;91.20;;;;;;5083132;28;20047;-61
2021/10/23 00:21:39;;;;;;;3.75;1.50;;;10.40;91.20;;;;;;5077075;28;20083;-61
2021/10/23 00:24:06;;;;;;;8.02;1.95;;;10.40;91.20;;;;;;5073937;28;20080;-60
2021/10/23 00:26:33;;;;;;;3.92;1.38;;;10.40;91.30;;;;;;5080731;28;20542;-60
2021/10/23 00:28:59;;;;;;;5.80;1.70;;;10.40;91.30;;;;;;5075503;28;20076;-60
2021/10/23 00:31:26;;;;;;;5.95;1.55;;;10.40;91.30;;;;;;5073498;28;20679;-61
2021/10/23 00:33:53;;;;;;;5.90;1.90;;;10.40;91.30;;;;;;5086137;28;20071;-61
2021/10/23 00:36:20;;;;;;;4.88;1.67;;;10.40;91.40;;;;;;5085021;28;20087;-61
2021/10/23 00:38:47;;;;;;;4.38;1.77;;;10.40;91.40;;;;;;5087862;28;20598;-62
2021/10/23 00:41:14;;;;;;;9.30;2.20;;;10.40;91.40;;;;;;5085393;28;20067;-60
2021/10/23 00:43:44;;;;;;;3.28;1.70;;;10.30;91.40;;;;;;5089938;28;20052;-61
2021/10/23 00:46:14;;;;;;;8.23;1.85;;;10.40;91.40;;;;;;5092949;28;20044;-61
2021/10/23 00:48:41;;;;;;;4.55;1.90;;;10.30;91.50;;;;;;5081225;28;20049;-61
2021/10/23 00:51:09;;;;;;;2.83;1.75;;;10.30;91.50;;;;;;5090526;28;20080;-61
2021/10/23 00:53:36;;;;;;;2.55;1.42;;;10.30;91.50;;;;;;5083019;28;20443;-61
2021/10/23 00:56:04;;;;;;;3.22;1.50;;;10.30;91.50;;;;;;5084938;28;20076;-60
2021/10/23 00:58:31;;;;;;;2.38;1.58;;;10.30;91.50;;;;;;5087026;28;20048;-61
2021/10/23 01:00:59;;;;;;;1.73;1.02;;;10.20;91.60;;;;;;5088277;28;20048;-59
2021/10/23 01:03:26;;;;;;;2.30;1.30;;;10.20;91.60;;;;;;5077980;28;20490;-60
2021/10/23 01:05:53;;;;;;;5.53;1.65;;;10.20;91.50;;;;;;5089007;28;20044;-60
2021/10/23 01:08:20;;;;;;;2.40;1.50;;;10.20;91.60;;;;;;5072446;28;20043;-62
2021/10/23 01:10:47;;;;;;;3.40;1.70;;;10.20;91.50;;;;;;5076732;28;20458;-61
2021/10/23 01:13:14;;;;;;;3.35;1.50;;;10.20;91.50;;;;;;5081616;28;20052;-61
2021/10/23 01:15:40;;;;;;;2.90;1.52;;;10.20;91.50;;;;;;5079164;28;20071;-62
2021/10/23 01:18:09;;;;;;;6.22;1.65;;;10.20;91.50;;;;;;5081623;28;20049;-60
2021/10/23 01:20:36;;;;;;;7.78;2.28;;;10.20;91.60;;;;;;5086328;28;20573;-61
2021/10/23 01:23:02;;;;;;;5.75;1.60;;;10.20;91.70;;;;;;5082937;28;20103;-62
2021/10/23 01:25:30;;;;;;;4.00;1.95;;;10.10;91.80;;;;;;5085623;28;20043;-61
2021/10/23 01:27:58;;;;;;;8.18;1.55;;;10.10;91.90;;;;;;5083280;28;20044;-60
2021/10/23 01:30:26;;;;;;;4.80;2.03;;;10.10;91.90;;;;;;5085146;28;20074;-63
2021/10/23 01:32:53;;;;;;;6.07;2.95;;;10.10;91.90;;;;;;5072551;28;20098;-61
2021/10/23 01:35:23;;;;;;;4.80;1.80;;;10.00;92.00;;;;;;5074984;28;20079;-60
2021/10/23 01:37:50;;;;;;;4.32;1.55;;;10.00;92.10;;;;;;5079828;28;20076;-60
2021/10/23 01:40:20;;;;;;;5.47;1.63;;;10.00;92.00;;;;;;5088006;28;20044;-62
2021/10/23 01:42:47;;;;;;;3.63;1.23;;;10.00;92.00;;;;;;5085107;28;20048;-62
2021/10/23 01:45:14;;;;;;;4.75;1.90;;;10.00;92.00;;;;;;5079534;28;20094;-62
2021/10/23 01:47:41;;;;;;;3.20;2.17;;;10.00;92.00;;;;;;5091311;28;20070;-60
2021/10/23 01:50:16;;;;;;;3.78;1.15;;;10.00;92.00;;;;;;5074786;28;20072;-61
2021/10/23 01:52:43;;;;;;;4.38;2.55;;;10.00;92.10;;;;;;5076394;28;20048;-61
2021/10/23 01:55:14;;;;;;;6.10;1.42;;;10.00;92.00;;;;;;5086412;28;20410;-61
2021/10/23 01:57:41;;;;;;;3.30;1.33;;;10.00;92.10;;;;;;5081594;28;20084;-60
2021/10/23 02:00:09;;;;;;;4.97;1.80;;;10.00;92.00;;;;;;5075778;28;20075;-63
2021/10/23 02:02:36;;;;;;;6.45;2.03;;;10.00;92.00;;;;;;5078240;28;20453;-60
2021/10/23 02:05:03;;;;;;;3.92;1.90;;;10.00;92.00;;;;;;5081311;28;20101;-62
2021/10/23 02:07:30;;;;;;;4.75;1.77;;;10.10;92.00;;;;;;5079696;28;20498;-61
2021/10/23 02:09:57;;;;;;;3.67;1.30;;;10.10;92.00;;;;;;5080807;28;20041;-62
2021/10/23 02:12:24;;;;;;;5.75;1.65;;;10.10;92.00;;;;;;5075730;28;20083;-61
2021/10/23 02:14:50;;;;;;;2.58;1.30;;;10.10;92.00;;;;;;5080847;28;20070;-62
2021/10/23 02:17:18;;;;;;;3.45;1.77;;;10.10;92.00;;;;;;5084176;28;20040;-62
2021/10/23 02:19:44;;;;;;;4.63;2.05;;;10.10;92.00;;;;;;5080037;28;20088;-60
2021/10/23 02:22:11;;;;;;;5.22;1.60;;;10.00;91.90;;;;;;5085129;28;20141;-61
2021/10/23 02:24:38;;;;;;;2.03;1.33;;;10.00;92.00;;;;;;5082247;28;20108;-60
2021/10/23 02:27:05;;;;;;;4.78;1.50;;;10.10;92.00;;;;;;5076673;28;20117;-62
2021/10/23 02:29:32;;;;;;;2.78;1.17;;;10.00;92.00;;;;;;5088852;28;20608;-60
2021/10/23 02:31:58;;;;;;;3.22;1.48;;;10.00;92.00;;;;;;5081005;28;20454;-61
2021/10/23 02:34:25;;;;;;;3.25;1.63;;;10.00;92.10;;;;;;5077389;28;20551;-62
2021/10/23 02:36:52;;;;;;;4.57;1.35;;;10.00;92.10;;;;;;5084004;28;20466;-62
2021/10/23 02:39:19;;;;;;;6.90;1.67;;;10.00;92.10;;;;;;5075985;28;20080;-61
2021/10/23 02:41:46;;;;;;;3.90;1.80;;;10.00;92.10;;;;;;5087334;28;20490;-62
2021/10/23 02:44:13;;;;;;;9.02;1.60;;;10.00;92.10;;;;;;5086415;28;20044;-61
2021/10/23 02:46:39;;;;;;;4.53;1.50;;;10.00;92.10;;;;;;5087735;28;20091;-60
2021/10/23 02:49:07;;;;;;;4.43;1.60;;;10.00;92.30;;;;;;5085375;28;20051;-61
2021/10/23 02:51:35;;;;;;;6.57;1.63;;;10.50;92.20;;;;;;5089650;28;20043;-61
2021/10/23 02:54:02;;;;;;;3.88;1.63;;;10.00;92.10;;;;;;5076297;28;20087;-63
2021/10/23 02:56:29;;;;;;;3.40;1.67;;;10.00;92.20;;;;;;5083500;28;20047;-63
2021/10/23 02:58:55;;;;;;;2.38;1.30;;;10.00;92.20;;;;;;5086397;28;20566;-62
2021/10/23 03:01:22;;;;;;;3.15;1.40;;;10.00;92.20;;;;;;5081853;28;20442;-63
2021/10/23 03:03:50;;;;;;;3.10;1.42;;;10.00;92.10;;;;;;5078741;28;20099;-62
2021/10/23 03:06:18;;;;;;;5.90;1.95;;;10.10;92.40;;;;;;5080079;28;20052;-61
2021/10/23 03:08:45;;;;;;;4.55;1.70;;;10.10;92.10;;;;;;5084466;28;20044;-62
2021/10/23 03:11:12;;;;;;;3.60;1.63;;;10.10;92.00;;;;;;5080194;28;20044;-62
2021/10/23 03:13:40;;;;;;;6.90;2.13;;;10.10;92.10;;;;;;5086840;28;20553;-62
2021/10/23 03:16:07;;;;;;;6.85;2.47;;;10.10;92.10;;;;;;5080399;28;20069;-61
2021/10/23 03:18:36;;;;;;;5.43;2.58;;;10.10;92.10;;;;;;5080062;28;20045;-62
2021/10/23 03:21:03;;;;;;;13.57;2.75;;;10.20;92.10;;;;;;5083592;28;20097;-61
2021/10/23 03:23:30;;;;;;;5.72;3.00;;;10.10;92.00;;;;;;5079041;28;20475;-61
2021/10/23 03:25:57;;;;;;;7.90;3.30;;;10.10;92.10;;;;;;5086601;28;20044;-60
2021/10/23 03:28:24;;;;;;;5.60;3.05;;;10.10;92.10;;;;;;5075068;28;20547;-61
2021/10/23 03:30:50;;;;;;;5.57;2.95;;;10.10;92.10;;;;;;5074625;28;20044;-62
2021/10/23 03:33:17;;;;;;;4.82;2.63;;;10.10;92.00;;;;;;5083990;28;20089;-61
2021/10/23 03:35:44;;;;;;;6.05;2.28;;;10.10;92.00;;;;;;5086735;28;20052;-61
2021/10/23 03:38:11;;;;;;;6.13;2.22;;;10.10;92.00;;;;;;5080255;28;20068;-62
2021/10/23 03:40:37;;;;;;;5.97;2.65;;;10.10;92.00;;;;;;5076067;28;20071;-61
2021/10/23 03:43:04;;;;;;;4.85;2.00;;;10.10;92.00;;;;;;5081777;28;20080;-61
2021/10/23 03:45:31;;;;;;;7.57;3.20;;;10.10;92.00;;;;;;5086270;28;20113;-61
2021/10/23 03:47:58;;;;;;;7.40;3.15;;;10.10;92.00;;;;;;5082476;28;20090;-61
2021/10/23 03:50:25;;;;;;;4.55;1.85;;;10.10;92.00;;;;;;5079112;28;20040;-61
2021/10/23 03:52:52;;;;;;;5.07;2.40;;;10.10;92.00;;;;;;5081638;28;20339;-61
2021/10/23 03:55:19;;;;;;;4.47;1.90;;;10.10;92.00;;;;;;5087713;28;20059;-61
2021/10/23 03:57:45;;;;;;;6.35;1.77;;;10.10;92.00;;;;;;5076812;28;20040;-61
2021/10/23 04:00:13;;;;;;;6.05;2.33;;;10.20;92.10;;;;;;5080121;28;20048;-60
2021/10/23 04:02:39;;;;;;;6.63;3.10;;;10.20;92.00;;;;;;5079363;28;20082;-60
2021/10/23 04:05:07;;;;;;;6.35;1.95;;;10.10;92.00;;;;;;5090842;28;20048;-61
2021/10/23 04:07:34;;;;;;;5.35;1.60;;;10.20;92.10;;;;;;5088127;28;20527;-63
2021/10/23 04:10:02;;;;;;;5.13;2.05;;;10.20;92.30;;;;;;5078013;28;20041;-61
2021/10/23 04:12:29;;;;;;;6.18;1.88;;;10.20;92.10;;;;;;5087439;28;20048;-61
2021/10/23 04:14:56;;;;;;;4.78;1.38;;;10.20;92.00;;;;;;5093417;28;20048;-61
2021/10/23 04:17:23;;;;;;;5.28;1.98;;;10.10;92.00;;;;;;5082393;28;20086;-61
2021/10/23 04:19:50;;;;;;;8.63;1.52;;;10.20;91.90;;;;;;5083022;28;20416;-61
2021/10/23 04:22:17;;;;;;;6.25;1.45;;;10.20;92.00;;;;;;5083505;28;20089;-61
2021/10/23 04:24:44;;;;;;;4.40;2.03;;;10.20;92.00;;;;;;5079702;28;20048;-61
2021/10/23 04:27:11;;;;;;;4.78;1.60;;;10.20;91.90;;;;;;5087344;28;20082;-60
2021/10/23 04:29:37;;;;;;;5.40;1.63;;;10.20;92.00;;;;;;5084264;28;20047;-60
2021/10/23 04:32:04;;;;;;;8.35;1.58;;;10.20;92.00;;;;;;5088943;28;20060;-61
2021/10/23 04:34:31;;;;;;;4.40;1.50;;;10.20;92.00;;;;;;5084806;28;20071;-61
2021/10/23 04:36:58;;;;;;;3.58;1.90;;;10.20;92.00;;;;;;5090136;28;20043;-61
2021/10/23 04:39:25;;;;;;;3.30;1.92;;;10.20;91.90;;;;;;5084023;28;20515;-61
2021/10/23 04:41:51;;;;;;;4.13;1.42;;;10.20;91.90;;;;;;5086136;28;20054;-61
2021/10/23 04:44:18;;;;;;;2.95;1.55;;;10.20;91.90;;;;;;5088778;28;20048;-60
2021/10/23 04:46:45;;;;;;;4.15;1.52;;;10.30;91.90;;;;;;5079929;28;20105;-60
2021/10/23 04:49:12;;;;;;;6.82;1.50;;;10.20;91.90;;;;;;5089039;28;20040;-60
2021/10/23 04:51:39;;;;;;;2.08;1.35;;;10.30;91.80;;;;;;5077451;28;20079;-61
2021/10/23 04:54:06;;;;;;;6.80;1.65;;;10.30;91.90;;;;;;5087328;28;20586;-60
2021/10/23 04:56:33;;;;;;;1.85;1.35;;;10.20;91.90;;;;;;5087002;28;20083;-61
2021/10/23 04:59:00;;;;;;;2.42;1.45;;;10.20;91.90;;;;;;5085716;28;20102;-61
2021/10/23 05:01:27;;;;;;;6.60;1.52;;;10.20;92.00;;;;;;5082927;28;20075;-61
2021/10/23 05:03:54;;;;;;;2.97;1.33;;;10.20;92.00;;;;;;5083011;28;20078;-60
2021/10/23 05:06:21;;;;;;;1.92;1.15;;;10.20;92.00;;;;;;5086028;28;20075;-61
2021/10/23 05:08:48;;;;;;;8.35;1.65;;;10.20;91.90;;;;;;5084869;28;20045;-61
2021/10/23 05:11:15;;;;;;;3.78;1.90;;;10.20;92.00;;;;;;5083394;28;20044;-61
2021/10/23 05:13:42;;;;;;;2.95;1.77;;;10.20;91.90;;;;;;5088337;28;20303;-61
2021/10/23 05:16:13;;;;;;;4.25;1.10;;;10.20;91.90;;;;;;5071698;28;20044;-61
2021/10/23 05:18:40;;;;;;;5.60;2.85;;;10.20;91.90;;;;;;5087233;28;20048;-61
2021/10/23 05:21:07;;;;;;;4.47;2.00;;;10.30;91.90;;;;;;5080429;28;20083;-61
2021/10/23 05:23:33;;;;;;;3.20;1.33;;;10.20;91.90;;;;;;5076799;28;20102;-60
2021/10/23 05:26:00;;;;;;;8.00;1.40;;;10.30;92.00;;;;;;5091436;28;20478;-61
2021/10/23 05:28:27;;;;;;;4.15;1.17;;;10.20;92.00;;;;;;5077630;28;20044;-61
2021/10/23 05:30:54;;;;;;;4.43;1.50;;;10.20;92.00;;;;;;5089784;28;20051;-61
2021/10/23 05:33:20;;;;;;;4.80;1.70;;;10.20;92.00;;;;;;5078370;28;20106;-62
2021/10/23 05:35:47;;;;;;;3.03;1.40;;;10.20;92.00;;;;;;5072101;28;20045;-60
2021/10/23 05:38:14;;;;;;;16.00;1.60;;;10.20;91.90;;;;;;5083057;28;20083;-61
2021/10/23 05:40:41;;;;;;;2.83;1.30;;;10.20;92.00;;;;;;5090005;28;20054;-61
2021/10/23 05:43:08;;;;;;;4.00;1.77;;;10.20;92.00;;;;;;5081094;28;20052;-60
2021/10/23 05:45:35;;;;;;;3.67;1.90;;;10.20;92.10;;;;;;5083034;28;20052;-61
2021/10/23 05:48:01;;;;;;;5.38;1.42;;;10.20;92.10;;;;;;5087972;28;20078;-60
2021/10/23 05:50:28;;;;;;;3.33;1.42;;;10.20;92.00;;;;;;5084606;28;20114;-61
2021/10/23 05:52:55;;;;;;;4.00;1.25;;;10.20;92.00;;;;;;5084868;28;20052;-61
2021/10/23 05:55:22;;;;;;;7.38;1.20;;;10.20;91.90;;;;;;5079606;28;20072;-61
2021/10/23 05:57:49;;;;;;;6.45;1.33;;;10.20;92.10;;;;;;5087541;28;20204;-60
2021/10/23 06:00:15;;;;;;;8.05;1.83;;;10.20;92.10;;;;;;5086340;28;20041;-60
2021/10/23 06:02:44;;;;;;;5.63;1.60;;;10.20;92.10;;;;;;5080740;28;20044;-61
2021/10/23 06:05:11;;;;;;;6.85;2.10;;;10.20;92.10;;;;;;5088143;28;20052;-60
2021/10/23 06:07:39;;;;;;;4.97;1.40;;;10.20;92.00;;;;;;5082415;28;20083;-61
2021/10/23 06:10:10;;;;;;;6.75;1.58;;;10.30;92.00;;;;;;5088662;28;20082;-60
2021/10/23 06:12:40;;;;;;;7.43;1.58;;;10.20;91.90;;;;;;5081276;28;20101;-61
2021/10/23 06:15:07;;;;;;;7.90;1.38;;;10.20;91.90;;;;;;5086811;28;20094;-62
2021/10/23 06:17:34;;;;;;;2.47;1.20;;;10.30;91.90;;;;;;5090461;28;20040;-61
2021/10/23 06:20:02;;;;;;;9.55;1.70;;;10.20;91.90;;;;;;5088169;28;20048;-60
2021/10/23 06:22:29;;;;;;;9.55;1.83;;;10.20;92.00;;;;;;5087331;28;20040;-61
2021/10/23 06:24:56;;;;;;;6.32;1.60;;;10.20;92.00;;;;;;5084625;28;20090;-61
2021/10/23 06:27:23;;;;;;;2.75;1.65;;;10.20;92.00;;;;;;5075500;28;20076;-62
2021/10/23 06:29:51;;;;;;;5.03;1.70;;;10.20;92.00;;;;;;5081584;28;20051;-61
2021/10/23 06:32:18;;;;;;;5.70;1.38;;;10.30;92.00;;;;;;5085766;28;20048;-60
2021/10/23 06:34:44;;;;;;;6.93;1.55;;;10.20;92.00;;;;;;5078866;28;20052;-61
2021/10/23 06:37:12;;;;;;;2.72;1.10;;;10.20;92.00;;;;;;5061400;28;20075;-62
2021/10/23 06:39:39;;;;;;;5.57;1.83;;;10.30;92.00;;;;;;5084089;28;20052;-60
2021/10/23 06:42:06;;;;;;;2.85;1.20;;;10.20;92.00;;;;;;5076592;28;20044;-61
2021/10/23 06:44:33;;;;;;;6.18;1.70;;;10.20;92.00;;;;;;5089641;28;20044;-60
2021/10/23 06:47:03;;;;;;;7.15;1.75;;;10.20;91.90;;;;;;5083513;28;20051;-61
2021/10/23 06:49:30;;;;;;;5.00;1.50;;;10.20;91.90;;;;;;5072938;28;20067;-60
2021/10/23 06:51:57;;;;;;;5.03;1.50;;;10.20;91.80;;;;;;5085601;28;20044;-60
2021/10/23 06:54:23;;;;;;;4.68;1.20;;;10.30;91.80;;;;;;5081697;28;20082;-60
2021/10/23 06:56:50;;;;;;;6.05;1.50;;;10.20;91.80;;;;;;5086245;28;20040;-59
2021/10/23 06:59:17;;;;;;;6.70;1.40;;;10.20;91.80;;;;;;5082726;28;20097;-60
2021/10/23 07:01:44;;;;;;;5.85;2.10;;;10.30;92.10;;;;;;5083125;28;20098;-59
2021/10/23 07:04:11;;;;;;;2.38;1.42;;;10.30;91.90;;;;;;5090029;28;20044;-60
2021/10/23 07:06:37;;;;;;;6.38;1.55;;;10.20;91.80;;;;;;5084587;28;20150;-60
2021/10/23 07:09:04;;;;;;;4.55;1.15;;;10.30;91.90;;;;;;5084841;28;20075;-60
2021/10/23 07:11:31;;;;;;;2.03;1.08;;;10.30;91.80;;;;;;5084558;28;20105;-60
2021/10/23 07:13:58;;;;;;;2.60;0.90;;;10.30;91.80;;;;;;5084917;28;20132;-60
2021/10/23 07:16:24;;;;;;;5.63;1.10;;;10.30;91.80;;;;;;5081818;28;20535;-60
2021/10/23 07:18:51;;;;;;;3.47;1.10;;;10.30;91.70;;;;;;5083810;28;20055;-60
2021/10/23 07:21:18;;;;;;;4.75;1.60;;;10.30;91.60;;;;;;5081371;28;20380;-60
2021/10/23 07:23:45;;;;;;;3.92;1.48;;;10.40;91.60;;;;;;5082771;28;20040;-61
2021/10/23 07:26:12;;;;;;;7.47;1.73;;;10.40;91.60;;;;;;5082076;28;20048;-60
2021/10/23 07:28:39;;;;;;;4.82;1.83;;;10.40;91.50;;;;;;5083516;28;20048;-60
2021/10/23 07:31:06;;;;;;;2.13;0.77;;;10.40;91.50;;;;;;5084971;28;20044;-61
2021/10/23 07:33:32;;;;;;;2.50;1.17;;;10.50;91.50;;;;;;5067703;28;20079;-60
2021/10/23 07:36:04;;;;;;;3.92;1.33;;;10.50;91.40;;;;;;5090104;28;20446;-61
2021/10/23 07:38:31;;;;;;;3.10;1.27;;;10.50;91.30;;;;;;5085949;28;20126;-60
2021/10/23 07:40:58;;;;;;;2.58;0.95;;;10.50;91.40;;;;;;5079102;28;20036;-60
2021/10/23 07:43:25;;;;;;;5.60;1.77;;;10.50;91.30;;;;;;4733901;28;10000398;-61
2021/10/23 07:45:52;;;;;;;6.35;1.38;;;10.50;91.20;;;;;;5085580;28;20498;-62
2021/10/23 07:48:19;;;;;;;4.68;1.38;;;10.50;91.40;;;;;;5082968;28;20052;-61
2021/10/23 07:50:46;;;;;;;8.80;2.10;;;10.50;91.50;;;;;;5083219;28;20055;-60
2021/10/23 07:53:14;;;;;;;2.80;1.13;;;10.50;91.30;;;;;;5083691;28;20075;-60
2021/10/23 07:55:41;;;;;;;2.45;1.35;;;10.60;91.20;;;;;;5078453;28;20052;-60
2021/10/23 07:58:08;;;;;;;7.82;2.20;;;10.60;91.20;;;;;;5071125;28;20647;-61
2021/10/23 08:00:34;;;;;;;7.20;1.50;;;10.60;91.30;;;;;;5074186;28;20518;-61
2021/10/23 08:03:02;;;;;;;3.47;1.40;;;10.60;91.30;;;;;;5078796;28;20047;-61
2021/10/23 08:05:33;;;;;;;5.25;1.30;;;10.70;91.20;;;;;;5075399;28;20810;-61
2021/10/23 08:08:01;;;;;;;8.52;1.40;;;10.70;91.10;;;;;;5069186;28;20053;-61
2021/10/23 08:10:28;;;;;;;3.35;1.75;;;10.80;91.00;;;;;;5078162;28;20572;-60
2021/10/23 08:12:56;;;;;;;4.07;1.70;;;10.80;91.00;;;;;;5075193;28;20110;-61
2021/10/23 08:15:22;;;;;;;7.20;1.42;;;10.90;91.00;;;;;;5078179;28;20080;-61
2021/10/23 08:17:49;;;;;;;3.83;1.70;;;10.90;90.80;;;;;;5082114;28;20059;-60
2021/10/23 08:20:16;;;;;;;5.13;1.52;;;11.00;90.50;;;;;;5075781;28;20442;-61
2021/10/23 08:22:43;;;;;;;3.22;1.58;;;11.00;90.40;;;;;;5078151;28;20044;-63
2021/10/23 08:25:35;;;;;;;8.25;2.33;;;11.00;90.30;;;;;;5076636;28;20057;-61
2021/10/23 08:28:02;;;;;;;9.07;2.15;;;11.00;89.60;;;;;;5072820;28;20037;-56
2021/10/23 08:30:29;;;;;;;5.00;1.75;;;11.10;90.40;;;;;;5071957;28;20036;-60
2021/10/23 08:32:57;;;;;;;9.30;1.75;;;11.10;90.50;;;;;;5073015;28;20086;-61
2021/10/23 08:35:24;;;;;;;3.75;1.70;;;11.20;90.30;;;;;;5082568;28;20075;-61
2021/10/23 08:37:53;;;;;;;2.80;1.45;;;11.20;90.20;;;;;;5073761;28;20325;-60
2021/10/23 08:40:21;;;;;;;4.72;1.38;;;11.30;90.20;;;;;;5070088;28;20083;-60
2021/10/23 08:42:48;;;;;;;1.95;1.10;;;11.30;90.20;;;;;;5074754;28;20084;-60
2021/10/23 08:45:15;;;;;;;4.65;1.67;;;11.30;90.20;;;;;;5084270;28;20087;-60
2021/10/23 08:47:44;;;;;;;3.58;1.75;;;11.30;90.00;;;;;;5064919;28;20049;-61
2021/10/23 08:50:12;;;;;;;3.38;1.60;;;11.40;90.00;;;;;;5071052;28;20515;-60
2021/10/23 08:52:40;;;;;;;5.25;1.25;;;11.50;89.80;;;;;;5081151;28;20084;-61
2021/10/23 08:55:07;;;;;;;3.22;1.50;;;11.50;89.10;;;;;;5079309;28;20083;-59
2021/10/23 08:57:33;;;;;;;4.45;1.35;;;11.50;89.30;;;;;;5080016;28;20094;-60
2021/10/23 09:00:00;;;;;;;5.18;1.58;;;11.60;88.50;;;;;;5081861;28;20172;-60
2021/10/23 09:02:27;;;;;;;6.13;2.10;;;11.70;88.40;;;;;;5080104;28;20048;-60
2021/10/23 09:04:58;;;;;;;3.10;1.63;;;11.70;87.20;;;;;;5082552;28;20102;-60
2021/10/23 09:07:26;;;;;;;6.75;1.30;;;11.80;87.20;;;;;;5085778;28;20086;-60
2021/10/23 09:09:56;;;;;;;3.10;1.42;;;11.70;87.50;;;;;;5072753;28;20053;-59
2021/10/23 09:12:33;;;;;;;2.78;1.08;;;11.80;87.40;;;;;;5072667;28;20582;-59
2021/10/23 09:15:04;;;;;;;5.63;1.10;;;11.90;87.60;;;;;;5077895;28;20040;-60
2021/10/23 09:17:34;;;;;;;4.45;1.45;;;11.90;87.20;;;;;;5085544;28;20052;-60
2021/10/23 09:20:09;;;;;;;2.75;1.50;;;11.90;86.60;;;;;;5070484;28;20510;-59
2021/10/23 09:22:41;;;;;;;2.00;1.48;;;12.00;85.10;;;;;;5081824;28;20055;-60
2021/10/23 09:25:13;;;;;;;6.53;1.73;;;12.00;85.30;;;;;;5074955;28;20072;-60
2021/10/23 09:28:04;;;;;;;1.67;0.90;;;12.10;83.90;;;;;;5086520;28;20052;-60
2021/10/23 09:30:33;;;;;;;2.45;1.10;;;12.10;82.70;;;;;;5075051;28;20145;-60
2021/10/23 09:33:21;;;;;;;3.67;1.23;;;12.10;83.40;;;;;;5088405;28;20070;-60
2021/10/23 09:35:48;;;;;;;3.47;1.00;;;12.10;82.30;;;;;;5084157;28;20070;-60
2021/10/23 09:38:17;;;;;;;8.13;1.10;;;12.20;82.50;;;;;;5084831;28;20048;-61
2021/10/23 09:40:44;;;;;;;6.63;1.50;;;12.20;80.80;;;;;;5085486;28;20101;-60
2021/10/23 09:43:16;;;;;;;4.35;1.10;;;12.10;79.90;;;;;;5090251;28;20415;-60
2021/10/23 09:45:58;;;;;;;2.83;0.90;;;12.20;77.90;;;;;;5085779;28;20055;-61
2021/10/23 09:48:42;;;;;;;3.03;1.00;;;12.20;76.30;;;;;;5079951;28;20040;-61
2021/10/23 09:51:29;;;;;;;2.08;1.25;;;12.30;76.50;;;;;;5077152;28;20051;-61
2021/10/23 09:53:57;;;;;;;2.95;0.73;;;12.30;75.80;;;;;;5080913;28;20048;-60
2021/10/23 09:56:27;;;;;;;1.95;1.08;;;12.30;78.60;;;;;;5083874;28;20056;-61
2021/10/23 09:58:58;;;;;;;4.70;0.80;;;12.30;78.60;;;;;;5083192;28;20040;-60
2021/10/23 10:01:32;;;;;;;2.42;0.73;;;12.30;77.30;;;;;;5060053;28;20094;-61
2021/10/23 10:04:03;;;;;;;5.07;1.35;;;12.30;77.90;;;;;;5082014;28;20052;-60
2021/10/23 10:06:34;;;;;;;5.03;2.15;;;12.40;78.10;;;;;;5072661;28;20079;-60
2021/10/23 10:09:02;;;;;;;2.55;1.13;;;12.40;78.60;;;;;;5078873;28;20102;-61
2021/10/23 10:11:30;;;;;;;3.38;1.58;;;12.40;79.00;;;;;;5078247;28;20785;-60
2021/10/23 10:13:57;;;;;;;2.53;1.00;;;12.50;78.90;;;;;;5080437;28;20076;-60
2021/10/23 10:16:26;;;;;;;4.38;1.17;;;12.50;78.30;;;;;;5053181;28;20101;-61
2021/10/23 10:18:54;;;;;;;1.98;0.98;;;12.50;78.50;;;;;;5070045;28;20170;-60
2021/10/23 10:21:21;;;;;;;2.78;1.00;;;12.50;77.50;;;;;;5068830;28;20048;-60
2021/10/23 10:23:49;;;;;;;2.85;1.20;;;12.50;78.40;;;;;;5055992;28;20059;-59
2021/10/23 10:26:19;;;;;;;4.15;1.00;;;12.60;77.40;;;;;;5044998;28;20048;-59
2021/10/23 10:29:18;;;;;;;3.60;1.02;;;12.60;76.40;;;;;;5084262;28;20056;-60
2021/10/23 10:32:23;;;;;;;2.47;0.90;;;12.60;73.30;;;;;;5080363;28;20101;-60
2021/10/23 10:42:53;;;;;;;2.20;0.60;;;12.70;70.70;;;;;;5074066;28;20060;-60
2021/10/23 10:45:53;;;;;;;2.20;0.77;;;12.70;72.80;;;;;;5082589;28;20570;-60
2021/10/23 10:48:21;;;;;;;1.92;1.05;;;12.80;73.10;;;;;;5077634;28;20132;-60
2021/10/23 10:50:58;;;;;;;7.88;0.82;;;12.80;75.90;;;;;;5079687;28;20056;-60
2021/10/23 10:53:25;;;;;;;4.15;1.17;;;12.80;72.30;;;;;;5083237;28;20503;-60
2021/10/23 10:55:59;;;;;;;2.40;0.80;;;12.90;75.80;;;;;;5082834;28;20648;-61
2021/10/23 10:58:48;;;;;;;3.47;1.23;;;12.90;76.20;;;;;;5081201;28;20082;-60
2021/10/23 11:01:22;;;;;;;2.20;1.05;;;12.90;72.70;;;;;;5085218;28;20052;-60
2021/10/23 11:03:53;;;;;;;4.47;1.05;;;13.00;76.40;;;;;;5076252;28;20055;-60
2021/10/23 11:06:34;;;;;;;1.60;0.88;;;13.00;75.80;;;;;;5081429;28;20113;-59
2021/10/23 11:09:16;;;;;;;4.72;0.93;;;13.00;73.90;;;;;;5076397;28;20109;-60
2021/10/23 11:11:50;;;;;;;4.03;0.90;;;12.90;73.90;;;;;;5083844;28;20229;-60
2021/10/23 11:14:21;;;;;;;4.47;1.42;;;13.00;76.10;;;;;;5083636;28;20036;-60
2021/10/23 11:16:55;;;;;;;2.65;1.20;;;13.00;76.00;;;;;;5081364;28;20163;-61
2021/10/23 11:19:30;;;;;;;7.15;1.40;;;13.10;75.90;;;;;;5076720;28;20048;-61
2021/10/23 11:22:15;;;;;;;4.00;1.30;;;13.10;73.90;;;;;;5080122;28;20047;-60
2021/10/23 11:25:03;;;;;;;2.15;1.02;;;13.20;73.80;;;;;;5072516;28;20530;-59
2021/10/23 11:27:42;;;;;;;3.33;1.02;;;13.10;72.40;;;;;;5078367;28;20051;-61
2021/10/23 11:30:23;;;;;;;2.78;1.25;;;13.20;74.70;;;;;;5082279;28;20491;-61
2021/10/23 11:32:52;;;;;;;2.30;1.05;;;13.20;73.10;;;;;;5083767;28;20578;-60
2021/10/23 11:35:35;;;;;;;11.10;1.80;;;13.20;76.10;;;;;;5087389;28;20079;-60
2021/10/23 11:38:16;;;;;;;3.15;1.40;;;13.40;72.80;;;;;;5074711;28;20507;-61
2021/10/23 11:40:44;;;;;;;5.97;1.10;;;13.40;73.70;;;;;;5073486;28;20053;-61
2021/10/23 11:43:17;;;;;;;1.77;0.98;;;13.50;76.50;;;;;;5077330;28;20052;-60
2021/10/23 11:45:44;;;;;;;5.47;1.35;;;13.50;73.90;;;;;;5083462;28;20072;-60
2021/10/23 11:48:12;;;;;;;4.43;0.90;;;13.50;76.20;;;;;;5083500;28;20094;-59
2021/10/23 11:50:41;;;;;;;1.50;0.85;;;13.50;76.20;;;;;;5060801;28;20106;-60
2021/10/23 11:53:11;;;;;;;1.73;0.93;;;13.60;75.60;;;;;;5070369;28;20049;-60
2021/10/23 11:55:40;;;;;;;2.38;1.40;;;13.60;74.40;;;;;;5077513;28;20045;-60
2021/10/23 11:58:09;;;;;;;4.90;1.08;;;13.70;75.40;;;;;;5071734;28;20083;-61
2021/10/23 12:00:38;;;;;;;1.60;0.85;;;13.70;74.50;;;;;;5083709;28;20044;-61
2021/10/23 12:03:07;;;;;;;6.90;1.17;;;13.80;75.10;;;;;;5083418;28;20135;-60
2021/10/23 12:05:41;;;;;;;5.95;1.83;;;13.90;75.50;;;;;;5079759;28;20072;-60
2021/10/23 12:08:09;;;;;;;2.53;1.02;;;13.80;75.10;;;;;;5064121;28;20066;-60
2021/10/23 12:11:17;;;;;;;8.52;1.60;;;13.80;75.50;;;;;;5083417;28;20101;-60
2021/10/23 12:13:59;;;;;;;1.85;1.42;;;13.90;73.30;;;;;;5074836;28;20044;-60
2021/10/23 12:16:31;;;;;;;7.80;1.08;;;14.00;73.40;;;;;;5083633;28;20055;-63
2021/10/23 12:19:11;;;;;;;5.72;1.58;;;14.00;74.10;;;;;;5070752;28;20045;-61
2021/10/23 12:21:42;;;;;;;1.52;0.82;;;14.10;73.70;;;;;;5083851;28;20117;-61
2021/10/23 12:24:28;;;;;;;3.30;1.23;;;14.10;74.20;;;;;;5074464;28;20048;-60
2021/10/23 12:27:22;;;;;;;6.40;1.20;;;14.10;72.20;;;;;;5086699;28;20044;-60
2021/10/23 12:30:04;;;;;;;2.35;1.55;;;14.10;72.20;;;;;;5066168;28;20106;-62
2021/10/23 12:32:41;;;;;;;4.40;0.95;;;14.10;72.50;;;;;;5081510;28;20075;-60
2021/10/23 12:35:10;;;;;;;3.63;1.23;;;14.10;72.10;;;;;;5078091;28;20048;-59
2021/10/23 12:37:52;;;;;;;7.13;0.77;;;14.10;74.20;;;;;;5081177;28;20192;-59
2021/10/23 12:40:24;;;;;;;3.95;1.40;;;14.20;70.60;;;;;;5085272;28;20436;-59
2021/10/23 12:42:52;;;;;;;2.17;0.93;;;14.20;72.50;;;;;;5078799;28;20160;-60
2021/10/23 12:45:21;;;;;;;3.67;1.00;;;14.20;73.30;;;;;;5058319;28;20048;-60
2021/10/23 12:47:49;;;;;;;4.75;1.08;;;14.20;72.50;;;;;;5081944;28;20614;-61
2021/10/23 12:50:19;;;;;;;10.50;1.83;;;14.20;73.30;;;;;;5073435;28;20117;-60
2021/10/23 12:52:46;;;;;;;8.45;2.00;;;14.20;72.70;;;;;;5083126;28;20088;-60
2021/10/23 12:55:13;;;;;;;5.78;1.48;;;14.20;72.90;;;;;;5082955;28;20056;-60
2021/10/23 12:57:40;;;;;;;3.28;1.13;;;14.20;73.10;;;;;;5083949;28;20532;-61
2021/10/23 13:00:07;;;;;;;3.97;1.15;;;14.10;72.00;;;;;;5078677;28;20060;-60
2021/10/23 13:02:34;;;;;;;3.35;1.40;;;14.10;73.00;;;;;;5078806;28;20541;-60
2021/10/23 13:05:02;;;;;;;2.33;1.10;;;14.00;73.70;;;;;;5065117;28;20498;-60